sensor_id;sensor_type;location;lat;lon;timestamp;P1;durP1;ratioP1;P2;durP2;ratioP2
70850;SDS011;58475;49.662;9.636;2022-08-18T00:02:10;7.43;;;5.18;;
70850;SDS011;58475;49.662;9.636;2022-08-18T00:04:39;9.07;;;5.53;;
70850;SDS011;58475;49.662;9.636;2022-08-18T00:07:10;9.18;;;5.55;;
70850;SDS011;58475;49.662;9.636;2022-08-18T00:09:40;9.55;;;6.00;;
70850;SDS011;58475;49.662;9.636;2022-08-18T00:12:11;8.18;;;5.70;;
70850;SDS011;58475;49.662;9.636;2022-08-18T00:14:38;9.90;;;7.38;;
70850;SDS011;58475;49.662;9.636;2022-08-18T00:17:04;10.40;;;6.82;;
70850;SDS011;58475;49.662;9.636;2022-08-18T00:19:29;9.60;;;6.43;;
70850;SDS011;58475;49.662;9.636;2022-08-18T00:21:55;11.73;;;6.28;;
70850;SDS011;58475;49.662;9.636;2022-08-18T00:24:20;9.48;;;7.07;;
70850;SDS011;58475;49.662;9.636;2022-08-18T00:26:45;11.38;;;7.15;;
70850;SDS011;58475;49.662;9.636;2022-08-18T00:29:11;10.63;;;7.20;;
70850;SDS011;58475;49.662;9.636;2022-08-18T00:31:36;11.77;;;7.13;;
70850;SDS011;58475;49.662;9.636;2022-08-18T00:34:01;13.68;;;6.28;;
70850;SDS011;58475;49.662;9.636;2022-08-18T00:36:27;9.02;;;6.38;;
70850;SDS011;58475;49.662;9.636;2022-08-18T00:38:52;10.55;;;5.90;;
70850;SDS011;58475;49.662;9.636;2022-08-18T00:41:18;10.00;;;6.60;;
70850;SDS011;58475;49.662;9.636;2022-08-18T00:43:46;9.00;;;6.43;;
70850;SDS011;58475;49.662;9.636;2022-08-18T00:46:18;9.02;;;5.70;;
70850;SDS011;58475;49.662;9.636;2022-08-18T00:48:46;10.18;;;6.40;;
70850;SDS011;58475;49.662;9.636;2022-08-18T00:51:14;10.00;;;6.07;;
70850;SDS011;58475;49.662;9.636;2022-08-18T00:54:00;11.15;;;6.47;;
70850;SDS011;58475;49.662;9.636;2022-08-18T00:56:33;10.60;;;6.28;;
70850;SDS011;58475;49.662;9.636;2022-08-18T01:01:51;8.13;;;5.95;;
70850;SDS011;58475;49.662;9.636;2022-08-18T01:04:27;10.07;;;5.80;;
70850;SDS011;58475;49.662;9.636;2022-08-18T01:07:03;7.75;;;5.72;;
70850;SDS011;58475;49.662;9.636;2022-08-18T01:09:32;10.10;;;6.07;;
70850;SDS011;58475;49.662;9.636;2022-08-18T01:11:57;8.68;;;6.25;;
70850;SDS011;58475;49.662;9.636;2022-08-18T01:14:23;10.85;;;5.93;;
70850;SDS011;58475;49.662;9.636;2022-08-18T01:16:49;8.82;;;6.05;;
70850;SDS011;58475;49.662;9.636;2022-08-18T01:19:34;9.05;;;6.20;;
70850;SDS011;58475;49.662;9.636;2022-08-18T01:22:24;10.90;;;5.85;;
70850;SDS011;58475;49.662;9.636;2022-08-18T01:24:54;9.02;;;6.20;;
70850;SDS011;58475;49.662;9.636;2022-08-18T01:27:41;12.18;;;5.78;;
70850;SDS011;58475;49.662;9.636;2022-08-18T01:30:09;11.52;;;6.20;;
70850;SDS011;58475;49.662;9.636;2022-08-18T01:32:37;8.70;;;5.70;;
70850;SDS011;58475;49.662;9.636;2022-08-18T01:35:03;8.50;;;6.10;;
70850;SDS011;58475;49.662;9.636;2022-08-18T01:37:33;10.30;;;6.28;;
70850;SDS011;58475;49.662;9.636;2022-08-18T01:39:59;10.27;;;6.38;;
70850;SDS011;58475;49.662;9.636;2022-08-18T01:42:24;8.88;;;5.85;;
70850;SDS011;58475;49.662;9.636;2022-08-18T01:44:50;9.00;;;5.70;;
70850;SDS011;58475;49.662;9.636;2022-08-18T01:47:15;9.30;;;5.90;;
70850;SDS011;58475;49.662;9.636;2022-08-18T01:49:42;10.82;;;6.43;;
70850;SDS011;58475;49.662;9.636;2022-08-18T01:52:09;8.30;;;6.07;;
70850;SDS011;58475;49.662;9.636;2022-08-18T01:54:37;9.48;;;5.63;;
70850;SDS011;58475;49.662;9.636;2022-08-18T01:57:05;11.45;;;6.40;;
70850;SDS011;58475;49.662;9.636;2022-08-18T01:59:30;11.32;;;6.28;;
70850;SDS011;58475;49.662;9.636;2022-08-18T02:01:55;9.73;;;6.13;;
70850;SDS011;58475;49.662;9.636;2022-08-18T02:04:25;9.05;;;5.75;;
70850;SDS011;58475;49.662;9.636;2022-08-18T02:06:53;12.23;;;6.25;;
70850;SDS011;58475;49.662;9.636;2022-08-18T02:09:20;8.90;;;6.35;;
70850;SDS011;58475;49.662;9.636;2022-08-18T02:11:46;9.52;;;5.95;;
70850;SDS011;58475;49.662;9.636;2022-08-18T02:14:11;8.13;;;5.75;;
70850;SDS011;58475;49.662;9.636;2022-08-18T02:16:37;10.98;;;5.97;;
70850;SDS011;58475;49.662;9.636;2022-08-18T02:19:02;9.77;;;6.45;;
70850;SDS011;58475;49.662;9.636;2022-08-18T02:21:28;9.50;;;6.50;;
70850;SDS011;58475;49.662;9.636;2022-08-18T02:23:53;9.52;;;6.47;;
70850;SDS011;58475;49.662;9.636;2022-08-18T02:26:18;10.82;;;6.25;;
70850;SDS011;58475;49.662;9.636;2022-08-18T02:28:44;10.80;;;6.30;;
70850;SDS011;58475;49.662;9.636;2022-08-18T02:31:17;8.27;;;5.82;;
70850;SDS011;58475;49.662;9.636;2022-08-18T02:33:46;10.43;;;6.60;;
70850;SDS011;58475;49.662;9.636;2022-08-18T02:36:12;9.98;;;6.70;;
70850;SDS011;58475;49.662;9.636;2022-08-18T02:38:39;8.60;;;6.20;;
70850;SDS011;58475;49.662;9.636;2022-08-18T02:41:05;9.02;;;6.55;;
70850;SDS011;58475;49.662;9.636;2022-08-18T02:43:33;8.82;;;6.18;;
70850;SDS011;58475;49.662;9.636;2022-08-18T02:45:59;9.13;;;6.70;;
70850;SDS011;58475;49.662;9.636;2022-08-18T02:48:25;9.30;;;6.40;;
70850;SDS011;58475;49.662;9.636;2022-08-18T02:51:06;9.30;;;6.40;;
70850;SDS011;58475;49.662;9.636;2022-08-18T02:53:36;9.35;;;6.50;;
70850;SDS011;58475;49.662;9.636;2022-08-18T02:58:59;9.60;;;6.30;;
70850;SDS011;58475;49.662;9.636;2022-08-18T03:01:30;9.02;;;5.88;;
70850;SDS011;58475;49.662;9.636;2022-08-18T03:03:57;8.77;;;6.22;;
70850;SDS011;58475;49.662;9.636;2022-08-18T03:06:24;9.65;;;5.70;;
70850;SDS011;58475;49.662;9.636;2022-08-18T03:08:51;9.52;;;6.20;;
70850;SDS011;58475;49.662;9.636;2022-08-18T03:11:22;8.55;;;6.20;;
70850;SDS011;58475;49.662;9.636;2022-08-18T03:13:49;10.43;;;6.95;;
70850;SDS011;58475;49.662;9.636;2022-08-18T03:16:16;9.63;;;6.53;;
70850;SDS011;58475;49.662;9.636;2022-08-18T03:18:42;9.00;;;6.40;;
70850;SDS011;58475;49.662;9.636;2022-08-18T03:21:11;9.52;;;6.35;;
70850;SDS011;58475;49.662;9.636;2022-08-18T03:23:41;9.50;;;6.38;;
70850;SDS011;58475;49.662;9.636;2022-08-18T03:26:12;10.32;;;6.75;;
70850;SDS011;58475;49.662;9.636;2022-08-18T03:28:40;9.35;;;6.55;;
70850;SDS011;58475;49.662;9.636;2022-08-18T03:31:08;11.30;;;6.55;;
70850;SDS011;58475;49.662;9.636;2022-08-18T03:33:34;9.02;;;6.68;;
70850;SDS011;58475;49.662;9.636;2022-08-18T03:36:04;8.63;;;6.10;;
70850;SDS011;58475;49.662;9.636;2022-08-18T03:38:30;9.05;;;6.43;;
70850;SDS011;58475;49.662;9.636;2022-08-18T03:40:56;8.80;;;6.32;;
70850;SDS011;58475;49.662;9.636;2022-08-18T03:43:21;10.15;;;6.88;;
70850;SDS011;58475;49.662;9.636;2022-08-18T03:45:46;10.18;;;5.80;;
70850;SDS011;58475;49.662;9.636;2022-08-18T03:48:12;12.73;;;6.75;;
70850;SDS011;58475;49.662;9.636;2022-08-18T03:50:37;10.52;;;6.80;;
70850;SDS011;58475;49.662;9.636;2022-08-18T03:53:03;10.25;;;6.70;;
70850;SDS011;58475;49.662;9.636;2022-08-18T03:55:29;9.30;;;6.65;;
70850;SDS011;58475;49.662;9.636;2022-08-18T03:58:01;9.90;;;6.50;;
70850;SDS011;58475;49.662;9.636;2022-08-18T04:00:30;9.85;;;6.43;;
70850;SDS011;58475;49.662;9.636;2022-08-18T04:02:57;10.30;;;6.53;;
70850;SDS011;58475;49.662;9.636;2022-08-18T04:05:26;8.98;;;6.28;;
70850;SDS011;58475;49.662;9.636;2022-08-18T04:07:53;9.75;;;6.20;;
70850;SDS011;58475;49.662;9.636;2022-08-18T04:10:19;10.10;;;6.00;;
70850;SDS011;58475;49.662;9.636;2022-08-18T04:12:44;9.40;;;6.18;;
70850;SDS011;58475;49.662;9.636;2022-08-18T04:15:10;9.48;;;6.57;;
70850;SDS011;58475;49.662;9.636;2022-08-18T04:17:36;11.82;;;6.47;;
70850;SDS011;58475;49.662;9.636;2022-08-18T04:20:01;9.98;;;6.30;;
70850;SDS011;58475;49.662;9.636;2022-08-18T04:22:27;8.75;;;6.10;;
70850;SDS011;58475;49.662;9.636;2022-08-18T04:24:52;10.23;;;6.15;;
70850;SDS011;58475;49.662;9.636;2022-08-18T04:27:19;8.00;;;5.85;;
70850;SDS011;58475;49.662;9.636;2022-08-18T04:29:46;9.98;;;5.57;;
70850;SDS011;58475;49.662;9.636;2022-08-18T04:32:12;9.02;;;5.70;;
70850;SDS011;58475;49.662;9.636;2022-08-18T04:34:37;9.35;;;6.07;;
70850;SDS011;58475;49.662;9.636;2022-08-18T04:37:03;10.75;;;5.80;;
70850;SDS011;58475;49.662;9.636;2022-08-18T04:39:28;7.55;;;5.20;;
70850;SDS011;58475;49.662;9.636;2022-08-18T04:41:54;8.75;;;6.18;;
70850;SDS011;58475;49.662;9.636;2022-08-18T04:44:20;11.05;;;5.97;;
70850;SDS011;58475;49.662;9.636;2022-08-18T04:46:47;9.05;;;5.78;;
70850;SDS011;58475;49.662;9.636;2022-08-18T04:49:14;8.68;;;6.10;;
70850;SDS011;58475;49.662;9.636;2022-08-18T04:51:42;8.07;;;5.35;;
70850;SDS011;58475;49.662;9.636;2022-08-18T04:54:31;8.48;;;5.80;;
70850;SDS011;58475;49.662;9.636;2022-08-18T04:57:04;8.50;;;5.70;;
70850;SDS011;58475;49.662;9.636;2022-08-18T04:59:31;9.32;;;5.95;;
70850;SDS011;58475;49.662;9.636;2022-08-18T05:01:57;10.73;;;5.80;;
70850;SDS011;58475;49.662;9.636;2022-08-18T05:04:26;8.38;;;5.68;;
70850;SDS011;58475;49.662;9.636;2022-08-18T05:06:53;9.00;;;5.95;;
70850;SDS011;58475;49.662;9.636;2022-08-18T05:09:18;9.10;;;5.53;;
70850;SDS011;58475;49.662;9.636;2022-08-18T05:11:44;9.95;;;5.68;;
70850;SDS011;58475;49.662;9.636;2022-08-18T05:14:09;7.85;;;5.68;;
70850;SDS011;58475;49.662;9.636;2022-08-18T05:16:35;9.88;;;5.95;;
70850;SDS011;58475;49.662;9.636;2022-08-18T05:19:02;7.75;;;5.65;;
70850;SDS011;58475;49.662;9.636;2022-08-18T05:21:29;8.63;;;6.00;;
70850;SDS011;58475;49.662;9.636;2022-08-18T05:23:55;9.23;;;5.70;;
70850;SDS011;58475;49.662;9.636;2022-08-18T05:26:20;7.40;;;5.47;;
70850;SDS011;58475;49.662;9.636;2022-08-18T05:28:46;8.15;;;5.82;;
70850;SDS011;58475;49.662;9.636;2022-08-18T05:31:22;8.40;;;5.65;;
70850;SDS011;58475;49.662;9.636;2022-08-18T05:33:50;9.52;;;6.00;;
70850;SDS011;58475;49.662;9.636;2022-08-18T05:41:27;8.00;;;5.55;;
70850;SDS011;58475;49.662;9.636;2022-08-18T05:43:57;8.32;;;5.95;;
70850;SDS011;58475;49.662;9.636;2022-08-18T05:46:25;8.55;;;6.07;;
70850;SDS011;58475;49.662;9.636;2022-08-18T05:49:03;8.60;;;6.07;;
70850;SDS011;58475;49.662;9.636;2022-08-18T05:51:30;10.15;;;5.93;;
70850;SDS011;58475;49.662;9.636;2022-08-18T05:54:01;8.68;;;6.10;;
70850;SDS011;58475;49.662;9.636;2022-08-18T05:56:46;9.10;;;6.07;;
70850;SDS011;58475;49.662;9.636;2022-08-18T05:59:26;8.85;;;5.63;;
70850;SDS011;58475;49.662;9.636;2022-08-18T06:02:02;10.27;;;5.95;;
70850;SDS011;58475;49.662;9.636;2022-08-18T06:04:49;8.90;;;6.03;;
70850;SDS011;58475;49.662;9.636;2022-08-18T06:07:18;8.60;;;5.82;;
70850;SDS011;58475;49.662;9.636;2022-08-18T06:09:54;8.35;;;5.88;;
70850;SDS011;58475;49.662;9.636;2022-08-18T06:12:24;8.68;;;6.30;;
70850;SDS011;58475;49.662;9.636;2022-08-18T06:15:02;8.32;;;5.32;;
70850;SDS011;58475;49.662;9.636;2022-08-18T06:17:45;11.18;;;5.43;;
70850;SDS011;58475;49.662;9.636;2022-08-18T06:40:38;9.23;;;5.30;;
70850;SDS011;58475;49.662;9.636;2022-08-18T06:43:05;10.10;;;5.65;;
70850;SDS011;58475;49.662;9.636;2022-08-18T06:45:36;9.10;;;6.00;;
70850;SDS011;58475;49.662;9.636;2022-08-18T06:50:33;7.68;;;5.30;;
70850;SDS011;58475;49.662;9.636;2022-08-18T06:53:05;7.88;;;5.75;;
70850;SDS011;58475;49.662;9.636;2022-08-18T06:55:36;7.85;;;5.63;;
70850;SDS011;58475;49.662;9.636;2022-08-18T07:06:09;9.63;;;6.10;;
70850;SDS011;58475;49.662;9.636;2022-08-18T07:09:16;9.23;;;6.50;;
70850;SDS011;58475;49.662;9.636;2022-08-18T07:12:07;9.48;;;6.70;;
70850;SDS011;58475;49.662;9.636;2022-08-18T07:14:44;10.15;;;6.05;;
70850;SDS011;58475;49.662;9.636;2022-08-18T07:17:20;13.27;;;6.32;;
70850;SDS011;58475;49.662;9.636;2022-08-18T07:19:58;8.30;;;5.90;;
70850;SDS011;58475;49.662;9.636;2022-08-18T07:25:29;9.32;;;6.53;;
70850;SDS011;58475;49.662;9.636;2022-08-18T07:28:02;9.15;;;6.50;;
70850;SDS011;58475;49.662;9.636;2022-08-18T07:30:30;9.05;;;6.53;;
70850;SDS011;58475;49.662;9.636;2022-08-18T07:33:00;9.60;;;6.53;;
70850;SDS011;58475;49.662;9.636;2022-08-18T07:35:35;9.25;;;6.38;;
70850;SDS011;58475;49.662;9.636;2022-08-18T07:44:12;9.20;;;6.28;;
70850;SDS011;58475;49.662;9.636;2022-08-18T07:49:25;8.98;;;6.85;;
70850;SDS011;58475;49.662;9.636;2022-08-18T07:52:07;9.45;;;6.68;;
70850;SDS011;58475;49.662;9.636;2022-08-18T07:54:42;9.80;;;7.13;;
70850;SDS011;58475;49.662;9.636;2022-08-18T08:00:19;9.18;;;6.80;;
70850;SDS011;58475;49.662;9.636;2022-08-18T08:08:17;9.85;;;7.07;;
70850;SDS011;58475;49.662;9.636;2022-08-18T08:22:15;10.90;;;7.80;;
70850;SDS011;58475;49.662;9.636;2022-08-18T08:25:03;13.30;;;8.50;;
70850;SDS011;58475;49.662;9.636;2022-08-18T08:27:41;12.15;;;8.60;;
70850;SDS011;58475;49.662;9.636;2022-08-18T08:30:32;11.02;;;8.13;;
70850;SDS011;58475;49.662;9.636;2022-08-18T08:41:36;10.52;;;8.35;;
70850;SDS011;58475;49.662;9.636;2022-08-18T08:44:31;11.68;;;8.85;;
70850;SDS011;58475;49.662;9.636;2022-08-18T08:49:57;12.35;;;9.15;;
70850;SDS011;58475;49.662;9.636;2022-08-18T08:52:37;11.18;;;8.60;;
70850;SDS011;58475;49.662;9.636;2022-08-18T08:55:13;11.65;;;8.93;;
70850;SDS011;58475;49.662;9.636;2022-08-18T08:57:57;12.23;;;9.52;;
70850;SDS011;58475;49.662;9.636;2022-08-18T09:00:33;11.25;;;8.75;;
70850;SDS011;58475;49.662;9.636;2022-08-18T09:08:54;11.93;;;8.85;;
70850;SDS011;58475;49.662;9.636;2022-08-18T09:23:09;12.40;;;9.10;;
70850;SDS011;58475;49.662;9.636;2022-08-18T09:28:08;12.95;;;8.45;;
70850;SDS011;58475;49.662;9.636;2022-08-18T09:38:51;11.52;;;8.48;;
70850;SDS011;58475;49.662;9.636;2022-08-18T09:41:59;12.73;;;8.98;;
70850;SDS011;58475;49.662;9.636;2022-08-18T09:45:03;13.45;;;8.60;;
70850;SDS011;58475;49.662;9.636;2022-08-18T09:49:53;11.23;;;8.65;;
70850;SDS011;58475;49.662;9.636;2022-08-18T09:54:52;10.48;;;8.68;;
70850;SDS011;58475;49.662;9.636;2022-08-18T09:57:26;12.20;;;9.02;;
70850;SDS011;58475;49.662;9.636;2022-08-18T10:16:39;12.55;;;8.70;;
70850;SDS011;58475;49.662;9.636;2022-08-18T10:24:27;11.05;;;8.65;;
70850;SDS011;58475;49.662;9.636;2022-08-18T10:26:58;11.43;;;8.20;;
70850;SDS011;58475;49.662;9.636;2022-08-18T10:37:20;12.60;;;8.80;;
70850;SDS011;58475;49.662;9.636;2022-08-18T10:39:47;11.50;;;9.27;;
70850;SDS011;58475;49.662;9.636;2022-08-18T10:44:51;11.00;;;8.80;;
70850;SDS011;58475;49.662;9.636;2022-08-18T10:47:25;11.98;;;8.70;;
70850;SDS011;58475;49.662;9.636;2022-08-18T10:49:53;10.73;;;8.90;;
70850;SDS011;58475;49.662;9.636;2022-08-18T10:52:25;13.00;;;8.77;;
70850;SDS011;58475;49.662;9.636;2022-08-18T10:55:16;11.55;;;8.68;;
70850;SDS011;58475;49.662;9.636;2022-08-18T10:58:03;11.90;;;8.65;;
70850;SDS011;58475;49.662;9.636;2022-08-18T11:06:25;11.40;;;8.40;;
70850;SDS011;58475;49.662;9.636;2022-08-18T11:08:55;10.70;;;8.32;;
70850;SDS011;58475;49.662;9.636;2022-08-18T11:11:32;9.95;;;8.25;;
70850;SDS011;58475;49.662;9.636;2022-08-18T11:14:04;11.10;;;8.88;;
70850;SDS011;58475;49.662;9.636;2022-08-18T11:17:01;10.57;;;8.88;;
70850;SDS011;58475;49.662;9.636;2022-08-18T11:19:48;11.52;;;9.27;;
70850;SDS011;58475;49.662;9.636;2022-08-18T11:22:22;11.35;;;9.43;;
70850;SDS011;58475;49.662;9.636;2022-08-18T11:24:55;12.32;;;9.02;;
70850;SDS011;58475;49.662;9.636;2022-08-18T11:27:23;11.68;;;8.50;;
70850;SDS011;58475;49.662;9.636;2022-08-18T11:29:51;11.45;;;9.38;;
70850;SDS011;58475;49.662;9.636;2022-08-18T11:32:25;12.05;;;9.25;;
70850;SDS011;58475;49.662;9.636;2022-08-18T11:45:22;11.70;;;8.85;;
70850;SDS011;58475;49.662;9.636;2022-08-18T11:56:00;12.10;;;10.35;;
70850;SDS011;58475;49.662;9.636;2022-08-18T12:03:58;12.50;;;9.80;;
70850;SDS011;58475;49.662;9.636;2022-08-18T12:06:32;12.52;;;10.48;;
70850;SDS011;58475;49.662;9.636;2022-08-18T12:09:07;14.55;;;11.00;;
70850;SDS011;58475;49.662;9.636;2022-08-18T12:11:54;13.40;;;10.00;;
70850;SDS011;58475;49.662;9.636;2022-08-18T12:14:23;12.68;;;9.82;;
70850;SDS011;58475;49.662;9.636;2022-08-18T12:16:50;13.07;;;9.85;;
70850;SDS011;58475;49.662;9.636;2022-08-18T12:19:16;11.65;;;9.30;;
70850;SDS011;58475;49.662;9.636;2022-08-18T12:21:46;12.13;;;9.10;;
70850;SDS011;58475;49.662;9.636;2022-08-18T12:24:21;12.50;;;9.50;;
70850;SDS011;58475;49.662;9.636;2022-08-18T12:26:51;15.15;;;9.32;;
70850;SDS011;58475;49.662;9.636;2022-08-18T12:29:17;11.10;;;9.07;;
70850;SDS011;58475;49.662;9.636;2022-08-18T12:31:44;11.77;;;9.07;;
70850;SDS011;58475;49.662;9.636;2022-08-18T12:34:10;11.02;;;9.05;;
70850;SDS011;58475;49.662;9.636;2022-08-18T12:36:35;12.30;;;9.10;;
70850;SDS011;58475;49.662;9.636;2022-08-18T12:39:01;11.45;;;9.00;;
70850;SDS011;58475;49.662;9.636;2022-08-18T12:41:27;11.85;;;8.45;;
70850;SDS011;58475;49.662;9.636;2022-08-18T12:43:53;9.48;;;8.13;;
70850;SDS011;58475;49.662;9.636;2022-08-18T12:46:18;11.10;;;8.50;;
70850;SDS011;58475;49.662;9.636;2022-08-18T12:48:47;11.55;;;8.85;;
70850;SDS011;58475;49.662;9.636;2022-08-18T12:51:15;14.43;;;8.60;;
70850;SDS011;58475;49.662;9.636;2022-08-18T12:53:40;11.50;;;8.70;;
70850;SDS011;58475;49.662;9.636;2022-08-18T12:56:07;10.98;;;8.70;;
70850;SDS011;58475;49.662;9.636;2022-08-18T12:58:42;9.55;;;7.57;;
70850;SDS011;58475;49.662;9.636;2022-08-18T13:01:08;11.98;;;7.85;;
70850;SDS011;58475;49.662;9.636;2022-08-18T13:03:34;10.13;;;7.68;;
70850;SDS011;58475;49.662;9.636;2022-08-18T13:05:59;12.55;;;7.20;;
70850;SDS011;58475;49.662;9.636;2022-08-18T13:08:24;9.77;;;7.32;;
70850;SDS011;58475;49.662;9.636;2022-08-18T13:10:50;9.85;;;7.13;;
70850;SDS011;58475;49.662;9.636;2022-08-18T13:13:16;10.35;;;7.00;;
70850;SDS011;58475;49.662;9.636;2022-08-18T13:15:43;9.50;;;7.13;;
70850;SDS011;58475;49.662;9.636;2022-08-18T13:18:10;8.52;;;7.10;;
70850;SDS011;58475;49.662;9.636;2022-08-18T13:20:36;8.48;;;7.20;;
70850;SDS011;58475;49.662;9.636;2022-08-18T13:23:01;8.73;;;7.05;;
70850;SDS011;58475;49.662;9.636;2022-08-18T13:25:27;9.25;;;7.38;;
70850;SDS011;58475;49.662;9.636;2022-08-18T13:27:52;9.23;;;7.05;;
70850;SDS011;58475;49.662;9.636;2022-08-18T13:30:20;8.75;;;7.10;;
70850;SDS011;58475;49.662;9.636;2022-08-18T13:32:47;8.32;;;6.97;;
70850;SDS011;58475;49.662;9.636;2022-08-18T13:35:13;9.20;;;6.97;;
70850;SDS011;58475;49.662;9.636;2022-08-18T13:37:38;9.45;;;7.32;;
70850;SDS011;58475;49.662;9.636;2022-08-18T13:40:05;7.85;;;6.78;;
70850;SDS011;58475;49.662;9.636;2022-08-18T13:42:38;9.23;;;6.82;;
70850;SDS011;58475;49.662;9.636;2022-08-18T13:45:06;8.75;;;6.90;;
70850;SDS011;58475;49.662;9.636;2022-08-18T13:47:31;9.30;;;7.53;;
70850;SDS011;58475;49.662;9.636;2022-08-18T13:49:58;10.52;;;6.85;;
70850;SDS011;58475;49.662;9.636;2022-08-18T13:52:24;9.20;;;7.28;;
70850;SDS011;58475;49.662;9.636;2022-08-18T13:54:50;7.80;;;6.28;;
70850;SDS011;58475;49.662;9.636;2022-08-18T13:57:16;8.85;;;7.20;;
70850;SDS011;58475;49.662;9.636;2022-08-18T13:59:41;9.05;;;6.68;;
70850;SDS011;58475;49.662;9.636;2022-08-18T14:02:07;8.50;;;6.88;;
70850;SDS011;58475;49.662;9.636;2022-08-18T14:04:34;7.10;;;6.10;;
70850;SDS011;58475;49.662;9.636;2022-08-18T14:07:00;8.25;;;6.30;;
70850;SDS011;58475;49.662;9.636;2022-08-18T14:09:27;8.85;;;6.80;;
70850;SDS011;58475;49.662;9.636;2022-08-18T14:11:53;9.45;;;6.30;;
70850;SDS011;58475;49.662;9.636;2022-08-18T14:14:18;8.68;;;6.82;;
70850;SDS011;58475;49.662;9.636;2022-08-18T14:16:44;9.43;;;6.38;;
70850;SDS011;58475;49.662;9.636;2022-08-18T14:19:12;8.90;;;6.20;;
70850;SDS011;58475;49.662;9.636;2022-08-18T14:21:56;8.88;;;6.60;;
70850;SDS011;58475;49.662;9.636;2022-08-18T14:24:41;8.73;;;6.82;;
70850;SDS011;58475;49.662;9.636;2022-08-18T14:27:30;9.98;;;6.38;;
70850;SDS011;58475;49.662;9.636;2022-08-18T14:29:58;10.80;;;6.53;;
70850;SDS011;58475;49.662;9.636;2022-08-18T14:32:35;9.82;;;6.63;;
70850;SDS011;58475;49.662;9.636;2022-08-18T14:35:03;8.45;;;6.60;;
70850;SDS011;58475;49.662;9.636;2022-08-18T14:37:30;7.72;;;6.30;;
70850;SDS011;58475;49.662;9.636;2022-08-18T14:39:55;8.30;;;6.28;;
70850;SDS011;58475;49.662;9.636;2022-08-18T14:42:22;8.60;;;5.85;;
70850;SDS011;58475;49.662;9.636;2022-08-18T14:44:47;11.18;;;6.03;;
70850;SDS011;58475;49.662;9.636;2022-08-18T14:47:13;7.60;;;6.03;;
70850;SDS011;58475;49.662;9.636;2022-08-18T14:49:39;8.45;;;6.25;;
70850;SDS011;58475;49.662;9.636;2022-08-18T14:52:05;8.52;;;6.32;;
70850;SDS011;58475;49.662;9.636;2022-08-18T14:54:32;7.47;;;6.00;;
70850;SDS011;58475;49.662;9.636;2022-08-18T14:56:58;7.60;;;6.10;;
70850;SDS011;58475;49.662;9.636;2022-08-18T14:59:29;7.90;;;6.25;;
70850;SDS011;58475;49.662;9.636;2022-08-18T15:01:56;7.60;;;5.95;;
70850;SDS011;58475;49.662;9.636;2022-08-18T15:04:22;7.88;;;5.95;;
70850;SDS011;58475;49.662;9.636;2022-08-18T15:06:48;7.60;;;5.90;;
70850;SDS011;58475;49.662;9.636;2022-08-18T15:09:14;8.27;;;6.00;;
70850;SDS011;58475;49.662;9.636;2022-08-18T15:11:39;9.38;;;6.07;;
70850;SDS011;58475;49.662;9.636;2022-08-18T15:14:04;10.65;;;6.32;;
70850;SDS011;58475;49.662;9.636;2022-08-18T15:16:30;8.07;;;5.53;;
70850;SDS011;58475;49.662;9.636;2022-08-18T15:18:58;7.57;;;6.00;;
70850;SDS011;58475;49.662;9.636;2022-08-18T15:21:24;8.95;;;6.38;;
70850;SDS011;58475;49.662;9.636;2022-08-18T15:24:08;9.73;;;5.85;;
70850;SDS011;58475;49.662;9.636;2022-08-18T15:26:53;7.82;;;5.60;;
70850;SDS011;58475;49.662;9.636;2022-08-18T15:29:20;9.68;;;6.13;;
70850;SDS011;58475;49.662;9.636;2022-08-18T15:31:46;10.13;;;6.40;;
70850;SDS011;58475;49.662;9.636;2022-08-18T15:34:11;8.25;;;5.93;;
70850;SDS011;58475;49.662;9.636;2022-08-18T15:36:37;7.28;;;5.65;;
70850;SDS011;58475;49.662;9.636;2022-08-18T15:39:03;10.23;;;6.20;;
70850;SDS011;58475;49.662;9.636;2022-08-18T15:41:34;8.30;;;6.13;;
70850;SDS011;58475;49.662;9.636;2022-08-18T15:44:01;7.07;;;6.00;;
70850;SDS011;58475;49.662;9.636;2022-08-18T15:46:32;8.35;;;6.40;;
70850;SDS011;58475;49.662;9.636;2022-08-18T15:48:59;9.23;;;6.30;;
70850;SDS011;58475;49.662;9.636;2022-08-18T15:51:25;8.43;;;6.22;;
70850;SDS011;58475;49.662;9.636;2022-08-18T15:53:50;8.20;;;6.15;;
70850;SDS011;58475;49.662;9.636;2022-08-18T15:56:20;11.77;;;6.63;;
70850;SDS011;58475;49.662;9.636;2022-08-18T16:01:13;8.32;;;5.93;;
70850;SDS011;58475;49.662;9.636;2022-08-18T16:03:39;9.57;;;6.10;;
70850;SDS011;58475;49.662;9.636;2022-08-18T16:06:05;8.27;;;6.40;;
70850;SDS011;58475;49.662;9.636;2022-08-18T16:08:32;10.90;;;6.40;;
70850;SDS011;58475;49.662;9.636;2022-08-18T16:11:04;7.25;;;6.25;;
70850;SDS011;58475;49.662;9.636;2022-08-18T16:13:30;8.57;;;6.15;;
70850;SDS011;58475;49.662;9.636;2022-08-18T16:15:56;9.35;;;6.63;;
70850;SDS011;58475;49.662;9.636;2022-08-18T16:18:21;8.75;;;6.60;;
70850;SDS011;58475;49.662;9.636;2022-08-18T16:20:47;8.80;;;6.95;;
70850;SDS011;58475;49.662;9.636;2022-08-18T16:23:13;8.93;;;7.07;;
70850;SDS011;58475;49.662;9.636;2022-08-18T16:25:40;10.00;;;7.28;;
70850;SDS011;58475;49.662;9.636;2022-08-18T16:28:06;9.85;;;7.30;;
70850;SDS011;58475;49.662;9.636;2022-08-18T16:30:32;10.20;;;7.53;;
70850;SDS011;58475;49.662;9.636;2022-08-18T16:32:59;11.43;;;7.82;;
70850;SDS011;58475;49.662;9.636;2022-08-18T16:35:27;9.48;;;7.03;;
70850;SDS011;58475;49.662;9.636;2022-08-18T16:37:52;8.57;;;7.00;;
70850;SDS011;58475;49.662;9.636;2022-08-18T16:40:18;9.52;;;7.22;;
70850;SDS011;58475;49.662;9.636;2022-08-18T16:42:44;10.45;;;7.13;;
70850;SDS011;58475;49.662;9.636;2022-08-18T16:45:10;9.85;;;7.45;;
70850;SDS011;58475;49.662;9.636;2022-08-18T16:47:36;8.45;;;7.05;;
70850;SDS011;58475;49.662;9.636;2022-08-18T16:50:04;10.77;;;7.25;;
70850;SDS011;58475;49.662;9.636;2022-08-18T16:52:35;9.95;;;7.15;;
70850;SDS011;58475;49.662;9.636;2022-08-18T16:55:01;10.80;;;7.38;;
70850;SDS011;58475;49.662;9.636;2022-08-18T16:57:27;10.05;;;7.07;;
70850;SDS011;58475;49.662;9.636;2022-08-18T17:00:11;10.98;;;7.20;;
70850;SDS011;58475;49.662;9.636;2022-08-18T17:02:55;8.43;;;6.70;;
70850;SDS011;58475;49.662;9.636;2022-08-18T17:05:39;9.25;;;6.60;;
70850;SDS011;58475;49.662;9.636;2022-08-18T17:08:05;9.40;;;6.93;;
70850;SDS011;58475;49.662;9.636;2022-08-18T17:10:30;8.02;;;6.22;;
70850;SDS011;58475;49.662;9.636;2022-08-18T17:13:02;7.72;;;6.13;;
70850;SDS011;58475;49.662;9.636;2022-08-18T17:15:29;8.95;;;6.68;;
70850;SDS011;58475;49.662;9.636;2022-08-18T17:17:55;8.35;;;6.18;;
70850;SDS011;58475;49.662;9.636;2022-08-18T17:20:20;8.45;;;6.18;;
70850;SDS011;58475;49.662;9.636;2022-08-18T17:22:45;8.25;;;6.40;;
70850;SDS011;58475;49.662;9.636;2022-08-18T17:25:11;8.70;;;6.72;;
70850;SDS011;58475;49.662;9.636;2022-08-18T17:27:42;8.73;;;6.40;;
70850;SDS011;58475;49.662;9.636;2022-08-18T17:30:20;7.60;;;6.28;;
70850;SDS011;58475;49.662;9.636;2022-08-18T17:32:52;8.32;;;6.30;;
70850;SDS011;58475;49.662;9.636;2022-08-18T17:40:46;9.63;;;6.60;;
70850;SDS011;58475;49.662;9.636;2022-08-18T17:43:15;9.90;;;7.25;;
70850;SDS011;58475;49.662;9.636;2022-08-18T17:45:42;8.40;;;6.40;;
70850;SDS011;58475;49.662;9.636;2022-08-18T17:48:12;11.27;;;6.88;;
70850;SDS011;58475;49.662;9.636;2022-08-18T17:53:58;10.75;;;7.25;;
70850;SDS011;58475;49.662;9.636;2022-08-18T17:56:40;8.65;;;7.13;;
70850;SDS011;58475;49.662;9.636;2022-08-18T17:59:10;10.20;;;7.35;;
70850;SDS011;58475;49.662;9.636;2022-08-18T18:01:38;9.07;;;7.10;;
70850;SDS011;58475;49.662;9.636;2022-08-18T18:04:06;11.20;;;7.38;;
70850;SDS011;58475;49.662;9.636;2022-08-18T18:11:36;10.93;;;7.47;;
70850;SDS011;58475;49.662;9.636;2022-08-18T18:19:55;10.95;;;7.53;;
70850;SDS011;58475;49.662;9.636;2022-08-18T18:22:40;10.68;;;7.68;;